Time;durP1;ratioP1;P1;durP2;ratioP2;P2;SDS_P1;SDS_P2;PMS_P1;PMS_P2;Temp;Humidity;BMP_temperature;BMP_pressure;BME280_temperature;BME280_humidity;BME280_pressure;Samples;Min_cycle;Max_cycle;Signal;HPM_P1;HPM_P2
2023/04/10 00:02:12;;;;;;;14.90;8.25;;;;;;;-142.75;100.00;77907.09;4957774;28;20031;-67
2023/04/10 00:04:37;;;;;;;16.88;8.90;;;;;;;-142.75;100.00;77889.38;4975076;28;20134;-68
2023/04/10 00:07:03;;;;;;;13.02;7.70;;;;;;;-142.75;100.00;77879.53;4974794;28;20101;-67
2023/04/10 00:09:29;;;;;;;15.30;8.10;;;;;;;-142.75;100.00;77881.50;4974880;28;20041;-67
2023/04/10 00:11:55;;;;;;;13.55;7.22;;;;;;;-142.75;100.00;77885.44;4974923;28;20483;-66
2023/04/10 00:14:22;;;;;;;16.48;8.73;;;;;;;-142.75;100.00;77865.75;4974761;28;20029;-68
2023/04/10 00:16:48;;;;;;;15.07;8.50;;;;;;;-142.75;100.00;77873.63;4973463;28;20070;-67
2023/04/10 00:19:14;;;;;;;13.73;8.15;;;;;;;-142.75;100.00;77871.66;4974702;28;20033;-67
2023/04/10 00:21:40;;;;;;;16.85;8.27;;;;;;;-142.75;100.00;77873.63;4974749;28;20098;-67
2023/04/10 00:24:05;;;;;;;15.85;8.65;;;;;;;-142.75;100.00;77861.81;4973451;28;20030;-68
2023/04/10 00:26:30;;;;;;;14.38;8.52;;;;;;;-142.75;100.00;77857.88;4974503;28;20031;-67
2023/04/10 00:28:56;;;;;;;15.57;8.07;;;;;;;-142.75;100.00;77869.69;4974479;28;20086;-67
2023/04/10 00:31:21;;;;;;;15.80;8.75;;;;;;;-142.75;100.00;77877.56;4957273;28;20030;-69
2023/04/10 00:33:46;;;;;;;15.98;8.52;;;;;;;-142.75;100.00;77873.63;4974409;28;20061;-66
2023/04/10 00:36:11;;;;;;;15.15;8.38;;;;;;;-142.75;100.00;77879.53;4974343;28;20077;-67
2023/04/10 00:38:37;;;;;;;14.07;7.97;;;;;;;-142.75;100.00;77887.41;4957008;28;20479;-67
2023/04/10 00:41:03;;;;;;;16.92;8.38;;;;;;;-142.75;100.00;77897.25;4974428;28;20030;-67
2023/04/10 00:43:28;;;;;;;16.55;8.77;;;;;;;-142.75;100.00;77897.25;4973174;28;20026;-67
2023/04/10 00:45:53;;;;;;;14.95;8.00;;;;;;;-142.75;100.00;77887.41;4974161;28;20446;-67
2023/04/10 00:48:19;;;;;;;15.90;8.75;;;;;;;-142.75;100.00;77901.19;4974089;28;20072;-67
2023/04/10 00:50:45;;;;;;;14.52;9.13;;;;;;;-142.75;100.00;77885.44;4974190;28;20049;-67
2023/04/10 00:53:10;;;;;;;14.82;8.63;;;;;;;-142.75;100.00;77881.50;4974067;28;20034;-67
2023/04/10 00:55:36;;;;;;;18.73;9.13;;;;;;;-142.75;100.00;77901.19;4974166;28;20041;-67
2023/04/10 00:58:02;;;;;;;15.05;8.43;;;;;;;-142.75;100.00;77895.28;4972324;28;20022;-66
2023/04/10 01:00:27;;;;;;;15.43;8.43;;;;;;;-142.75;100.00;77901.19;4974023;28;20030;-67
2023/04/10 01:02:54;;;;;;;15.07;8.82;;;;;;;-142.75;100.00;77889.38;4973895;28;20090;-69
2023/04/10 01:05:19;;;;;;;13.02;8.27;;;;;;;-142.75;100.00;77889.38;4972593;28;20499;-68
2023/04/10 01:08:16;;;;;;;16.75;8.88;;;;;;;-142.75;100.00;77875.59;4972336;28;20027;-67
2023/04/10 01:10:59;;;;;;;16.20;8.93;;;;;;;-142.75;100.00;77893.31;4974365;28;20034;-68
2023/04/10 01:13:34;;;;;;;14.63;8.40;;;;;;;-142.75;100.00;77897.25;4972543;28;20498;-67
2023/04/10 01:16:17;;;;;;;14.37;8.10;;;;;;;-142.75;100.00;77885.44;4973666;28;20031;-68
2023/04/10 01:18:56;;;;;;;14.65;8.15;;;;;;;-142.75;100.00;77887.41;4973678;28;20050;-70
2023/04/10 01:21:22;;;;;;;14.97;8.63;;;;;;;-142.75;100.00;77879.53;4973702;28;20027;-67
2023/04/10 01:24:09;;;;;;;13.57;7.57;;;;;;;-142.75;100.00;77877.56;4973635;28;20023;-67
2023/04/10 01:27:02;;;;;;;13.33;7.73;;;;;;;-142.75;100.00;77893.31;4973449;28;20101;-68
2023/04/10 01:29:30;;;;;;;16.77;8.50;;;;;;;-142.75;100.00;77893.31;4973402;28;20030;-67
2023/04/10 01:32:12;;;;;;;14.13;7.90;;;;;;;-142.75;100.00;77893.31;4972176;28;20081;-67
2023/04/10 01:34:46;;;;;;;14.03;7.87;;;;;;;-142.75;100.00;77893.31;4973272;28;20113;-67
2023/04/10 01:37:16;;;;;;;13.87;7.23;;;;;;;-142.75;100.00;77901.19;4973196;28;20363;-67
2023/04/10 01:39:42;;;;;;;14.55;8.00;;;;;;;-142.75;100.00;77907.09;4973337;28;20030;-68
2023/04/10 01:42:10;;;;;;;12.97;7.57;;;;;;;-142.75;100.00;77913.03;4973179;28;20632;-67
2023/04/10 01:44:39;;;;;;;14.70;8.47;;;;;;;-142.75;100.00;77913.03;4973273;28;20034;-67
2023/04/10 01:47:06;;;;;;;13.10;6.77;;;;;;;-142.75;100.00;77907.09;4973018;28;20101;-67
2023/04/10 01:49:32;;;;;;;13.67;7.37;;;;;;;-142.75;100.00;77926.81;4973080;28;20027;-66
2023/04/10 01:51:59;;;;;;;13.63;8.20;;;;;;;-142.75;100.00;77913.03;4973115;28;20134;-67
2023/04/10 01:54:31;;;;;;;15.05;7.28;;;;;;;-142.75;100.00;77918.94;4972694;28;20026;-67
2023/04/10 01:56:58;;;;;;;16.93;7.80;;;;;;;-142.75;100.00;77911.06;4972834;28;20076;-67
2023/04/10 01:59:24;;;;;;;11.60;7.28;;;;;;;-142.75;100.00;77920.91;4972811;28;20035;-67
2023/04/10 02:01:55;;;;;;;14.63;8.17;;;;;;;-142.75;100.00;77899.22;4971757;28;20076;-67
2023/04/10 02:04:20;;;;;;;13.17;7.33;;;;;;;-142.75;100.00;77901.19;4973238;28;20061;-67
2023/04/10 02:07:04;;;;;;;16.10;7.57;;;;;;;-142.75;100.00;77889.38;4972795;28;20491;-67
2023/04/10 02:09:40;;;;;;;13.57;7.43;;;;;;;-142.75;100.00;77887.41;4955467;28;20380;-67
2023/04/10 02:12:12;;;;;;;14.68;7.72;;;;;;;-142.75;100.00;77881.50;4971309;28;20438;-69
2023/04/10 02:14:41;;;;;;;14.30;7.03;;;;;;;-142.75;100.00;77869.69;4972988;28;20023;-67
2023/04/10 02:17:08;;;;;;;13.07;7.93;;;;;;;-142.75;100.00;77859.84;4972693;28;20019;-67
2023/04/10 02:19:36;;;;;;;11.93;7.20;;;;;;;-142.75;100.00;77846.06;4972762;28;20030;-67
2023/04/10 02:22:04;;;;;;;12.32;7.32;;;;;;;-142.75;100.00;77840.16;4955531;28;20081;-67
2023/04/10 02:24:32;;;;;;;10.82;6.32;;;;;;;-142.75;100.00;77824.41;4972669;28;20023;-67
2023/04/10 02:26:57;;;;;;;12.88;7.00;;;;;;;-142.75;100.00;77818.50;4972610;28;20030;-67
2023/04/10 02:29:22;;;;;;;12.53;7.23;;;;;;;-142.75;100.00;77822.44;4972682;28;20403;-67
2023/04/10 02:31:47;;;;;;;13.20;7.13;;;;;;;-142.75;100.00;77806.69;4972724;28;20508;-67
2023/04/10 02:34:13;;;;;;;10.63;6.77;;;;;;;-142.75;100.00;77816.53;4971606;28;20081;-67
2023/04/10 02:36:38;;;;;;;13.60;7.33;;;;;;;-142.75;100.00;77802.75;4972534;28;20026;-67
2023/04/10 02:39:05;;;;;;;11.67;6.90;;;;;;;-142.75;100.00;77802.75;4972599;28;20031;-67
2023/04/10 02:41:31;;;;;;;11.77;6.70;;;;;;;-142.75;100.00;77796.84;4955286;28;20025;-67
2023/04/10 02:43:56;;;;;;;12.15;6.00;;;;;;;-142.75;100.00;77794.88;4972544;28;20031;-67
2023/04/10 02:46:22;;;;;;;11.03;6.70;;;;;;;-142.75;100.00;77790.94;4955151;28;20066;-66
2023/04/10 02:48:47;;;;;;;11.38;6.28;;;;;;;-142.75;100.00;77790.94;4972358;28;20090;-67
2023/04/10 02:51:13;;;;;;;12.32;6.63;;;;;;;-142.75;100.00;77792.91;4972566;28;20030;-67
2023/04/10 02:53:38;;;;;;;11.80;6.30;;;;;;;-142.75;100.00;77790.94;4972479;28;20117;-67
2023/04/10 02:56:06;;;;;;;12.27;5.93;;;;;;;-142.75;100.00;77794.88;4972388;28;20587;-67
2023/04/10 02:58:32;;;;;;;12.13;6.30;;;;;;;-142.75;100.00;77783.06;4972267;28;20045;-67
2023/04/10 03:00:58;;;;;;;13.07;6.32;;;;;;;-142.75;100.00;77783.06;4972472;28;20518;-68
2023/04/10 03:03:24;;;;;;;11.87;5.93;;;;;;;-142.75;100.00;77777.16;4972328;28;20033;-67
2023/04/10 03:05:49;;;;;;;15.35;5.68;;;;;;;-142.75;100.00;77771.25;4972832;28;20164;-67
2023/04/10 03:08:16;;;;;;;8.02;5.05;;;;;;;-142.75;100.00;77779.13;4975930;28;20030;-68
2023/04/10 03:10:47;;;;;;;11.18;5.78;;;;;;;-142.75;100.00;77767.31;4974884;28;20523;-67
2023/04/10 03:13:12;;;;;;;9.80;5.93;;;;;;;-142.75;100.00;77765.34;4975960;28;20031;-68
2023/04/10 03:15:38;;;;;;;13.53;6.07;;;;;;;-142.75;100.00;77753.53;4975906;28;20461;-67
2023/04/10 03:18:08;;;;;;;11.40;5.72;;;;;;;-142.75;100.00;77767.31;4975336;28;20043;-66
2023/04/10 03:20:35;;;;;;;8.57;5.03;;;;;;;-142.75;100.00;77767.31;4975873;28;20023;-68
2023/04/10 03:23:00;;;;;;;9.38;5.05;;;;;;;-142.75;100.00;77775.19;4975736;28;20041;-67
2023/04/10 03:25:26;;;;;;;9.95;5.85;;;;;;;-142.75;100.00;77757.47;4975872;28;20098;-66
2023/04/10 03:27:52;;;;;;;9.98;5.72;;;;;;;-142.75;100.00;77753.53;4975486;28;20022;-67
2023/04/10 03:30:17;;;;;;;8.57;5.00;;;;;;;-142.75;100.00;77753.53;4975550;28;20082;-68
2023/04/10 03:32:42;;;;;;;9.48;5.43;;;;;;;-142.75;100.00;77771.25;4958198;28;20069;-65
2023/04/10 03:35:09;;;;;;;8.00;5.22;;;;;;;-142.75;100.00;77751.56;4975662;28;20398;-66
2023/04/10 03:37:34;;;;;;;10.43;5.47;;;;;;;-142.75;100.00;77747.63;4975384;28;20056;-66
2023/04/10 03:40:00;;;;;;;12.27;5.88;;;;;;;-142.75;100.00;77751.56;4975528;28;20034;-66
2023/04/10 03:42:25;;;;;;;10.35;5.65;;;;;;;-142.75;100.00;77725.97;4975400;28;20027;-66
2023/04/10 03:44:51;;;;;;;8.13;4.93;;;;;;;-142.75;100.00;77735.81;4975352;28;20027;-66
2023/04/10 03:47:16;;;;;;;8.52;5.35;;;;;;;-142.75;100.00;77722.00;4973821;28;20018;-66
2023/04/10 03:49:41;;;;;;;10.18;5.35;;;;;;;-142.75;100.00;77723.97;4975370;28;20498;-66
2023/04/10 03:52:07;;;;;;;9.87;6.13;;;;;;;-142.75;100.00;77714.13;4975368;28;20023;-66
2023/04/10 03:54:32;;;;;;;11.33;5.50;;;;;;;-142.75;100.00;77716.09;4957656;28;20019;-66
2023/04/10 03:56:57;;;;;;;8.18;4.57;;;;;;;-142.75;100.00;77716.09;4957781;28;20029;-66
2023/04/10 03:59:23;;;;;;;7.00;4.70;;;;;;;-142.75;100.00;77710.19;4974897;28;20045;-68
2023/04/10 04:01:48;;;;;;;8.68;4.85;;;;;;;-142.75;100.00;77722.00;4975095;28;20030;-66
2023/04/10 04:04:13;;;;;;;7.68;4.65;;;;;;;-142.75;100.00;77704.28;4957631;28;20106;-66
2023/04/10 04:06:39;;;;;;;9.35;5.32;;;;;;;-142.75;100.00;77700.34;4957721;28;20026;-66
2023/04/10 04:09:05;;;;;;;8.82;5.05;;;;;;;-142.75;100.00;77706.25;4974867;28;20062;-66
2023/04/10 04:11:30;;;;;;;7.73;4.77;;;;;;;-142.75;100.00;77700.34;4974980;28;20027;-66
2023/04/10 04:13:56;;;;;;;9.10;4.93;;;;;;;-142.75;100.00;77690.50;4974713;28;20033;-68
2023/04/10 04:16:21;;;;;;;7.90;4.70;;;;;;;-142.75;100.00;77694.44;4974706;28;20030;-66
2023/04/10 04:18:46;;;;;;;7.25;4.70;;;;;;;-142.75;100.00;77686.56;4974574;28;20019;-66
2023/04/10 04:21:12;;;;;;;6.57;4.22;;;;;;;-142.75;100.00;77676.72;4974788;28;20022;-66
2023/04/10 04:23:37;;;;;;;8.05;4.75;;;;;;;-142.75;100.00;77682.63;4974594;28;20034;-65
2023/04/10 04:26:02;;;;;;;11.90;4.43;;;;;;;-142.75;100.00;77678.69;4974545;28;20050;-68
2023/04/10 04:28:28;;;;;;;7.30;4.53;;;;;;;-142.75;100.00;77668.84;4957047;28;20142;-66
2023/04/10 04:30:53;;;;;;;6.93;4.55;;;;;;;-142.75;100.00;77660.97;4974556;28;20034;-66
2023/04/10 04:33:18;;;;;;;10.13;4.57;;;;;;;-142.75;100.00;77657.03;4974432;28;20081;-65
2023/04/10 04:35:44;;;;;;;8.93;4.90;;;;;;;-142.75;100.00;77649.16;4957180;28;20492;-65
2023/04/10 04:38:09;;;;;;;7.72;4.95;;;;;;;-142.75;100.00;77645.22;4972957;28;20031;-66
2023/04/10 04:40:34;;;;;;;6.80;4.60;;;;;;;-142.75;100.00;77645.22;4974495;28;20038;-66
2023/04/10 04:43:00;;;;;;;7.40;4.45;;;;;;;-142.75;100.00;77649.16;4974220;28;20034;-67
2023/04/10 04:45:25;;;;;;;9.40;5.00;;;;;;;-142.75;100.00;77653.09;4974169;28;20038;-68
2023/04/10 04:47:50;;;;;;;8.73;4.53;;;;;;;-142.75;100.00;77649.16;4974005;28;20738;-65
2023/04/10 04:50:16;;;;;;;8.02;4.88;;;;;;;-142.75;100.00;77649.16;4972992;28;20100;-66
2023/04/10 04:52:42;;;;;;;7.32;4.65;;;;;;;-142.75;100.00;77645.22;4974091;28;20027;-66
2023/04/10 04:55:08;;;;;;;8.15;4.43;;;;;;;-142.75;100.00;77645.22;4973904;28;20031;-68
2023/04/10 04:57:34;;;;;;;7.82;4.88;;;;;;;-142.75;100.00;77647.19;4973720;28;20033;-66
2023/04/10 04:59:59;;;;;;;7.78;4.80;;;;;;;-142.75;100.00;77645.22;4956672;28;20027;-66
2023/04/10 05:02:24;;;;;;;7.35;4.15;;;;;;;-142.75;100.00;77653.09;4973846;28;20030;-67
2023/04/10 05:04:50;;;;;;;8.03;4.60;;;;;;;-142.75;100.00;77645.22;4956516;28;20030;-66
2023/04/10 05:07:15;;;;;;;9.82;5.00;;;;;;;-142.75;100.00;77647.19;4973581;28;20161;-67
2023/04/10 05:09:40;;;;;;;8.65;4.93;;;;;;;-142.75;100.00;77643.25;4973854;28;20030;-67
2023/04/10 05:12:06;;;;;;;8.38;5.03;;;;;;;-142.75;100.00;77649.16;4973835;28;20026;-67
2023/04/10 05:14:31;;;;;;;10.10;4.55;;;;;;;-142.75;100.00;77641.28;4973524;28;20065;-67
2023/04/10 05:16:56;;;;;;;7.47;5.00;;;;;;;-142.75;100.00;77635.38;4973651;28;20073;-66
2023/04/10 05:19:22;;;;;;;6.55;4.13;;;;;;;-142.75;100.00;77670.81;4973528;28;20085;-67
2023/04/10 05:21:47;;;;;;;8.88;5.30;;;;;;;-142.75;100.00;77664.91;4974546;28;20038;-66
2023/04/10 05:24:12;;;;;;;8.55;4.85;;;;;;;-142.75;100.00;77660.97;4973520;28;20035;-66
2023/04/10 05:26:38;;;;;;;9.60;5.15;;;;;;;-142.75;100.00;77672.78;4973295;28;20027;-67
2023/04/10 05:29:03;;;;;;;8.35;4.75;;;;;;;-142.75;100.00;77676.72;4972744;28;20054;-66
2023/04/10 05:31:29;;;;;;;9.02;5.72;;;;;;;-142.75;100.00;77690.50;4973501;28;20118;-67
2023/04/10 05:33:54;;;;;;;11.32;5.18;;;;;;;-142.75;100.00;77680.66;4973313;28;20029;-67
2023/04/10 05:36:19;;;;;;;9.52;4.80;;;;;;;-142.75;100.00;77704.28;4973379;28;20031;-66
2023/04/10 05:38:45;;;;;;;10.57;5.47;;;;;;;-142.75;100.00;77700.34;4973266;28;20058;-65
2023/04/10 05:41:10;;;;;;;8.97;5.20;;;;;;;-142.75;100.00;77708.22;4973406;28;20089;-66
2023/04/10 05:43:35;;;;;;;11.18;5.47;;;;;;;-142.75;100.00;77722.00;4955583;28;20038;-67
2023/04/10 05:46:01;;;;;;;9.18;5.32;;;;;;;-142.75;100.00;77708.22;4955736;28;20054;-67
2023/04/10 05:48:27;;;;;;;8.73;5.50;;;;;;;-142.75;100.00;77722.00;4972992;28;20027;-66
2023/04/10 05:50:53;;;;;;;10.30;5.43;;;;;;;-142.75;100.00;77723.97;4973262;28;20166;-66
2023/04/10 05:53:19;;;;;;;7.68;4.65;;;;;;;-142.75;100.00;77710.19;4973023;28;20546;-66
2023/04/10 05:55:50;;;;;;;9.48;5.63;;;;;;;-142.75;100.00;77710.19;4973117;28;20031;-67
2023/04/10 05:58:15;;;;;;;12.13;5.87;;;;;;;-142.75;100.00;77727.94;4972809;28;20031;-66
2023/04/10 06:00:40;;;;;;;8.60;5.85;;;;;;;-142.75;100.00;77727.94;4973593;28;20037;-65
2023/04/10 06:03:06;;;;;;;8.32;5.00;;;;;;;-142.75;100.00;77718.06;4972955;28;20035;-66
2023/04/10 06:05:31;;;;;;;8.50;4.90;;;;;;;-142.75;100.00;77725.97;4973043;28;20034;-66
2023/04/10 06:07:56;;;;;;;9.85;5.53;;;;;;;-142.75;100.00;77727.94;4972393;28;20035;-66
2023/04/10 06:10:22;;;;;;;8.82;5.50;;;;;;;-142.75;100.00;77731.88;4972891;28;20054;-67
2023/04/10 06:12:47;;;;;;;8.90;5.30;;;;;;;-142.75;100.00;77727.94;4972663;28;20053;-66
2023/04/10 06:15:12;;;;;;;8.20;5.10;;;;;;;-142.75;100.00;77722.00;4955532;28;20495;-66
2023/04/10 06:17:42;;;;;;;8.20;5.28;;;;;;;-142.75;100.00;77722.00;4972544;28;20026;-67
2023/04/10 06:20:08;;;;;;;10.03;5.97;;;;;;;-142.75;100.00;77720.03;4971491;28;20037;-66
2023/04/10 06:22:33;;;;;;;8.05;5.18;;;;;;;-142.75;100.00;77729.88;4971450;28;20034;-66
2023/04/10 06:24:59;;;;;;;9.00;5.50;;;;;;;-142.75;100.00;77723.97;4972844;28;20372;-67
2023/04/10 06:27:24;;;;;;;9.27;5.00;;;;;;;-142.75;100.00;77714.13;4972300;28;20054;-67
2023/04/10 06:29:50;;;;;;;8.77;5.57;;;;;;;-142.75;100.00;77704.28;4972751;28;20468;-66
2023/04/10 06:32:15;;;;;;;11.13;6.60;;;;;;;-142.75;100.00;77700.34;4955282;28;20069;-66
2023/04/10 06:34:40;;;;;;;9.63;5.13;;;;;;;-142.75;100.00;77688.53;4972726;28;20109;-66
2023/04/10 06:37:05;;;;;;;10.53;5.80;;;;;;;-142.75;100.00;77688.53;4972582;28;20402;-67
2023/04/10 06:39:31;;;;;;;9.98;5.95;;;;;;;-142.75;100.00;77686.56;4972526;28;20050;-67
2023/04/10 06:41:56;;;;;;;7.53;5.40;;;;;;;-142.75;100.00;77680.66;4974935;28;20033;-66
2023/04/10 06:44:22;;;;;;;9.80;5.25;;;;;;;-142.75;100.00;77676.72;4976410;28;20505;-66
2023/04/10 06:46:47;;;;;;;8.63;5.70;;;;;;;-142.75;100.00;77676.72;4958857;28;20030;-67
2023/04/10 06:49:13;;;;;;;10.17;5.80;;;;;;;-142.75;100.00;77659.00;4976429;28;20117;-66
2023/04/10 06:51:38;;;;;;;10.00;5.60;;;;;;;-142.75;100.00;77653.09;4976330;28;20034;-66
2023/04/10 06:54:03;;;;;;;9.27;5.53;;;;;;;-142.75;100.00;77653.09;4975229;28;20026;-65
2023/04/10 06:56:29;;;;;;;11.00;5.53;;;;;;;-142.75;100.00;77633.41;4958062;28;20027;-67
2023/04/10 06:58:55;;;;;;;7.72;5.18;;;;;;;-142.75;100.00;77633.41;4976030;28;20022;-67
2023/04/10 07:01:20;;;;;;;10.73;5.65;;;;;;;-142.75;100.00;77623.56;4976284;28;20033;-66
2023/04/10 07:03:45;;;;;;;11.15;5.85;;;;;;;-142.75;100.00;77607.81;4976147;28;20026;-67
2023/04/10 07:06:11;;;;;;;10.10;5.07;;;;;;;-142.75;100.00;77605.84;4958698;28;20370;-66
2023/04/10 07:08:36;;;;;;;11.00;6.43;;;;;;;-142.75;100.00;77592.06;4958583;28;20022;-66
2023/04/10 07:11:01;;;;;;;10.05;5.45;;;;;;;-142.75;100.00;77586.16;4958932;28;20093;-67
2023/04/10 07:13:27;;;;;;;10.02;5.70;;;;;;;-142.75;100.00;77574.34;4975995;28;20054;-65
2023/04/10 07:15:52;;;;;;;10.48;5.82;;;;;;;-142.75;100.00;77570.41;4974639;28;20037;-66
2023/04/10 07:18:17;;;;;;;14.48;7.40;;;;;;;-142.75;100.00;77554.66;4975409;28;20026;-67
2023/04/10 07:20:43;;;;;;;17.73;9.90;;;;;;;-142.75;100.00;77552.69;4973976;28;20023;-66
2023/04/10 07:23:08;;;;;;;11.60;6.55;;;;;;;-142.75;100.00;77552.69;4975373;28;20389;-66
2023/04/10 07:25:33;;;;;;;9.98;5.60;;;;;;;-142.75;100.00;77546.78;4974981;28;20077;-66
2023/04/10 07:27:58;;;;;;;16.33;9.10;;;;;;;-142.75;100.00;77540.88;4975097;28;20219;-67
2023/04/10 07:30:24;;;;;;;9.20;5.67;;;;;;;-142.75;100.00;77533.00;4975173;28;20533;-66
2023/04/10 07:32:49;;;;;;;7.70;4.72;;;;;;;-142.75;100.00;77511.34;4975108;28;20049;-66
2023/04/10 07:35:15;;;;;;;7.93;4.63;;;;;;;-142.75;100.00;77515.28;4957091;28;20058;-65
2023/04/10 07:37:42;;;;;;;9.80;5.55;;;;;;;-142.75;100.00;77519.22;4955426;28;20082;-65
2023/04/10 07:40:08;;;;;;;10.25;5.07;;;;;;;-142.75;100.00;77519.22;4972453;28;20023;-66
2023/04/10 07:42:34;;;;;;;9.18;5.45;;;;;;;-142.75;100.00;77511.34;4975158;28;20023;-66
2023/04/10 07:44:59;;;;;;;7.28;5.28;;;;;;;-142.75;100.00;77531.03;4958141;28;20073;-66
2023/04/10 07:47:24;;;;;;;8.43;5.22;;;;;;;-142.75;100.00;77491.66;4975175;28;20460;-66
2023/04/10 07:49:50;;;;;;;9.18;5.32;;;;;;;-142.75;100.00;77487.72;4975420;28;20446;-67
2023/04/10 07:52:15;;;;;;;9.48;5.72;;;;;;;-142.75;100.00;77487.72;4957253;28;20375;-66
2023/04/10 07:54:41;;;;;;;8.98;5.55;;;;;;;-142.75;100.00;77468.03;4975369;28;20551;-67
2023/04/10 07:57:06;;;;;;;9.55;5.57;;;;;;;-142.75;100.00;77464.09;4973798;28;20025;-67
2023/04/10 07:59:31;;;;;;;7.70;4.90;;;;;;;-142.75;100.00;77475.91;4975145;28;20031;-66
2023/04/10 08:01:57;;;;;;;8.32;5.40;;;;;;;-142.75;100.00;77464.09;4975145;28;20380;-67
2023/04/10 08:04:22;;;;;;;8.45;5.50;;;;;;;-142.75;100.00;77460.13;4957657;28;20015;-67
2023/04/10 08:06:48;;;;;;;10.68;5.70;;;;;;;-142.75;100.00;77440.44;4974863;28;20422;-66
2023/04/10 08:09:14;;;;;;;10.05;5.63;;;;;;;-142.75;100.00;77434.53;4974922;28;20538;-66
2023/04/10 08:11:39;;;;;;;7.75;5.25;;;;;;;-142.75;100.00;77440.44;4972663;28;20030;-67
2023/04/10 08:14:05;;;;;;;9.93;6.15;;;;;;;-142.75;100.00;77442.41;4974427;28;20507;-67
2023/04/10 08:16:33;;;;;;;8.23;4.88;;;;;;;-142.75;100.00;77432.56;4968456;28;20045;-66
2023/04/10 08:18:59;;;;;;;8.02;5.47;;;;;;;-142.75;100.00;77426.66;4963356;28;20030;-66
2023/04/10 08:21:27;;;;;;;9.82;5.40;;;;;;;-142.75;100.00;77436.50;4958683;28;20027;-66
2023/04/10 08:23:54;;;;;;;12.43;6.20;;;;;;;-142.75;100.00;77414.84;4964445;28;20031;-66
2023/04/10 08:26:20;;;;;;;8.27;5.57;;;;;;;-142.75;100.00;77395.16;4959678;28;20027;-67
2023/04/10 08:28:49;;;;;;;9.65;5.93;;;;;;;-142.75;100.00;77412.88;4969045;28;20057;-66
2023/04/10 08:31:19;;;;;;;7.72;5.25;;;;;;;-142.75;100.00;77406.97;4943490;29;20030;-67
2023/04/10 08:33:45;;;;;;;11.43;5.63;;;;;;;-142.75;100.00;77393.19;4960486;28;20390;-66
2023/04/10 08:36:12;;;;;;;9.73;6.07;;;;;;;-142.75;100.00;77381.38;4958410;28;20027;-66
2023/04/10 08:38:38;;;;;;;9.10;5.95;;;;;;;-142.75;100.00;77387.28;4956695;28;20027;-66
2023/04/10 08:41:05;;;;;;;8.23;5.20;;;;;;;-142.75;100.00;77369.56;4954682;28;20023;-65
2023/04/10 08:43:30;;;;;;;8.73;4.93;;;;;;;-142.75;100.00;77371.53;4954408;28;20501;-67
2023/04/10 08:45:56;;;;;;;8.88;5.65;;;;;;;-142.75;100.00;77351.84;4954093;28;20172;-66
2023/04/10 08:48:28;;;;;;;9.85;5.35;;;;;;;-142.75;100.00;77340.03;4944380;28;20396;-66
2023/04/10 08:50:59;;;;;;;9.23;5.55;;;;;;;-142.75;100.00;77320.34;4957926;28;20023;-66
2023/04/10 08:53:29;;;;;;;12.25;6.50;;;;;;;-142.75;100.00;77302.63;4940526;28;20365;-66
2023/04/10 08:55:55;;;;;;;11.88;6.13;;;;;;;-142.75;100.00;77314.44;4954163;28;20368;-66
2023/04/10 08:58:20;;;;;;;10.60;5.97;;;;;;;-142.75;100.00;77302.63;4954237;28;20023;-66
2023/04/10 09:00:46;;;;;;;10.00;6.22;;;;;;;-142.75;100.00;77310.50;4954257;28;20023;-67
2023/04/10 09:03:13;;;;;;;9.95;5.75;;;;;;;-142.75;100.00;77300.66;4953603;28;20086;-65
2023/04/10 09:05:39;;;;;;;9.80;5.32;;;;;;;-142.75;100.00;77286.88;4954052;28;20043;-66
2023/04/10 09:08:06;;;;;;;9.95;5.47;;;;;;;-142.75;99.54;77282.94;4941356;28;20455;-64
2023/04/10 09:10:31;;;;;;;7.55;4.80;;;;;;;-142.75;100.00;77279.00;4949204;28;20061;-66
2023/04/10 09:12:57;;;;;;;9.85;5.28;;;;;;;-142.75;100.00;77275.06;4970103;28;20054;-66
2023/04/10 09:15:22;;;;;;;10.18;6.00;;;;;;;-142.75;99.33;77279.00;4972654;28;20026;-66
2023/04/10 09:18:02;;;;;;;13.57;7.57;;;;;;;-142.75;99.71;77265.22;4972574;28;20027;-66
2023/04/10 09:20:29;;;;;;;13.13;7.82;;;;;;;-142.75;100.00;77257.34;4972544;28;20038;-67
2023/04/10 09:22:55;;;;;;;14.63;7.95;;;;;;;-142.75;100.00;77239.63;4955527;28;20023;-67
2023/04/10 09:25:40;;;;;;;12.15;7.35;;;;;;;-142.75;100.00;77225.84;4972695;28;20030;-66
2023/04/10 09:28:07;;;;;;;16.38;9.20;;;;;;;-142.75;100.00;77219.94;4953884;28;20066;-66
2023/04/10 09:30:34;;;;;;;14.65;8.77;;;;;;;-142.75;100.00;77206.16;4954223;29;20483;-66
2023/04/10 09:33:00;;;;;;;18.33;10.93;;;;;;;-142.75;99.79;77212.06;4952946;29;20049;-66
2023/04/10 09:35:35;;;;;;;18.15;10.45;;;;;;;-142.75;99.95;77217.97;4954164;28;20527;-66
2023/04/10 09:38:01;;;;;;;19.15;10.57;;;;;;;-142.75;100.00;77204.19;4958493;28;20042;-66
2023/04/10 09:40:26;;;;;;;20.63;10.80;;;;;;;-142.75;100.00;77202.22;4973401;28;20395;-66
2023/04/10 09:42:52;;;;;;;22.02;12.68;;;;;;;-142.75;100.00;77192.38;4973219;28;20031;-66
2023/04/10 09:45:19;;;;;;;26.85;13.23;;;;;;;-142.75;100.00;77196.31;4956218;28;20586;-66
2023/04/10 09:48:05;;;;;;;28.83;15.23;;;;;;;-142.75;100.00;77184.50;4972199;28;20029;-66
2023/04/10 09:50:39;;;;;;;26.13;13.60;;;;;;;-142.75;100.00;77174.66;4973618;28;20019;-67
2023/04/10 09:53:05;;;;;;;34.28;17.77;;;;;;;-142.75;100.00;77176.63;4973583;28;20277;-66
2023/04/10 09:55:33;;;;;;;30.80;15.80;;;;;;;-142.75;100.00;77156.94;4973588;28;20023;-66
2023/04/10 09:57:59;;;;;;;27.15;15.10;;;;;;;-142.75;100.00;77149.06;4972789;28;20557;-67
2023/04/10 10:00:25;;;;;;;23.85;12.38;;;;;;;-142.75;99.21;77135.28;4973221;28;20054;-67
2023/04/10 10:02:52;;;;;;;22.52;11.52;;;;;;;-142.75;100.00;77121.50;4972955;28;20367;-67
2023/04/10 10:05:19;;;;;;;19.38;9.80;;;;;;;-142.75;100.00;77129.38;4973067;28;20489;-67
2023/04/10 10:07:45;;;;;;;19.63;10.88;;;;;;;-142.75;100.00;77113.63;4972687;28;20073;-67
2023/04/10 10:10:11;;;;;;;15.77;8.88;;;;;;;-142.75;100.00;77103.78;4972923;28;20027;-67
2023/04/10 10:12:51;;;;;;;15.63;8.70;;;;;;;-142.75;100.00;77082.13;4972874;28;20050;-66
2023/04/10 10:15:33;;;;;;;14.73;8.55;;;;;;;-142.75;98.61;77050.63;4972812;28;20027;-67
2023/04/10 10:18:26;;;;;;;14.35;8.38;;;;;;;-142.75;96.77;77015.19;4972654;28;20026;-67
2023/04/10 10:20:52;;;;;;;18.15;9.02;;;;;;;-142.75;96.86;77007.31;4972694;28;20027;-66
2023/04/10 10:23:18;;;;;;;15.68;9.63;;;;;;;-142.75;94.42;76995.50;4972677;28;20027;-67
2023/04/10 10:25:44;;;;;;;17.27;9.80;;;;;;;-142.75;94.89;76979.75;4972800;28;20027;-67
2023/04/10 10:28:12;;;;;;;20.27;11.38;;;;;;;-142.75;93.55;76932.50;4971196;28;20022;-67
2023/04/10 10:30:37;;;;;;;18.15;9.93;;;;;;;-142.75;92.63;76885.25;4955434;28;20038;-66
2023/04/10 10:33:06;;;;;;;24.48;11.25;;;;;;;-142.75;90.54;76883.28;4972621;28;20027;-66
2023/04/10 10:35:34;;;;;;;18.63;10.77;;;;;;;-142.75;91.86;76889.19;4972266;28;20018;-66
2023/04/10 10:38:02;;;;;;;20.77;10.55;;;;;;;-142.75;94.09;76891.16;4972167;28;20368;-66
2023/04/10 10:40:31;;;;;;;24.50;11.70;;;;;;;-142.75;91.55;76857.69;4972686;28;20029;-65
2023/04/10 10:43:41;;;;;;;20.40;10.15;;;;;;;-142.75;92.80;76814.38;4972639;28;20023;-65
2023/04/10 10:46:11;;;;;;;16.00;8.77;;;;;;;-142.75;92.96;76810.44;4947622;28;20043;-65
2023/04/10 10:48:36;;;;;;;15.13;9.45;;;;;;;-142.75;90.21;76771.09;4972783;28;20094;-65
2023/04/10 10:51:03;;;;;;;16.35;9.80;;;;;;;-142.75;91.14;76743.53;4972783;28;20470;-66
2023/04/10 10:53:39;;;;;;;21.58;11.80;;;;;;;-142.75;89.31;76737.63;4955181;28;20487;-66
2023/04/10 10:56:17;;;;;;;24.15;13.48;;;;;;;-142.75;91.01;76729.75;4972171;28;20077;-68
2023/04/10 10:58:56;;;;;;;30.10;15.40;;;;;;;-142.75;88.05;76717.94;4972276;28;20483;-68
2023/04/10 11:01:22;;;;;;;31.52;14.07;;;;;;;-142.75;87.78;76719.91;4972599;28;20022;-67
2023/04/10 11:03:47;;;;;;;19.80;12.25;;;;;;;-142.75;88.24;76688.41;4955074;28;20029;-67
2023/04/10 11:06:18;;;;;;;19.08;11.73;;;;;;;-142.75;87.73;76690.38;4971064;28;20050;-67